Strona główna
METAR-TAF:

METAR-TAF

Lotnisko :

São Paulo, São Paulo, Brazylia

Szerokość geograficzna: 23-31S, Długość geograficzna: 046-38W, wysokość: 722 m

Aktualna obserwacja pogody

Raport powstał 58 minut temu, godzina 00:00 UTC
Wiatr 2 kt z kierunków zmiennych
Temperatura 24°C
Wilgotność 50%
Ciśnienie 1018 hPa
Widzialność 10 km lub więcej
Brak chmur poniżej 1500 m i brak chmur cumulonimbus

METAR: SBMT 170000Z VRB02KT CAVOK 24/13 Q1018

czas: 21:58 (00:58 UTC)


TAF: brakujący

Obserwacja i prognoza pogody dla ponad 4000 lotnisk (raport METAR i TAF).

Dostępne stacje oznaczono żółtymi i czerwonymi punktami na mapie.

Najedź kursorem aby zobaczyć nazwę stacji.

Kliknij aby zobaczyć obserwacje i prognozy pogody.

Aby zmienić mapę: kliknij na zielony przycisk z czarnym krzyżykiem, aby powiększyć; na zielony przycisk z myślnikiem, aby pomniejszyć; na zielone strzałki, aby przejść do map sąsiednich.


METAR-TAF: